Menomonie, Wisconsin
Current Conditions -  °F | °C
As of 8:15 PM on Friday 24 Oct 2014 (Local Time) from KLUM Reporting Station
Haze Haze  
Wind Chill: 54°   Ceiling: 700
Heat Index: 54°   Visibility: 1.2mi
Dew Point: 53°   Wind: 3mph
Humidity: 96%   Direction: 150°SSE
Pressure: 29.86"   Gusts: NA
Location:  44.88°N, 91.93°W
Report Text: KLUM 250115Z AUTO 15003KT 1 1/4SM BR VV007 12/12 A2986 RMK AO2 T01220116
Loading
Personal Weather Stations






























Interactive Weather Map
Tropical Storm Tracking
New forecast layout! Learn more

10-Day Weather Forecast

Advertisements
Track Severe Weather on mobile